Time;durP1;ratioP1;P1;durP2;ratioP2;P2;SDS_P1;SDS_P2;PMS_P1;PMS_P2;Temp;Humidity;BMP_temperature;BMP_pressure;BME280_temperature;BME280_humidity;BME280_pressure;Samples;Min_cycle;Max_cycle;Signal;HPM_P1;HPM_P2
2022/04/19 00:01:45;;;;;;;7.15;3.05;;;10.20;99.90;;;;;;5013053;28;20088;-79
2022/04/19 00:04:11;;;;;;;6.70;3.10;;;10.10;99.90;;;;;;4995982;28;20021;-81
2022/04/19 00:06:37;;;;;;;6.00;2.95;;;10.10;99.90;;;;;;5013443;28;20029;-81
2022/04/19 00:09:04;;;;;;;6.28;3.47;;;10.10;99.90;;;;;;4995469;28;20017;-81
2022/04/19 00:11:36;;;;;;;11.50;3.58;;;10.10;99.90;;;;;;5003485;28;20038;-82
2022/04/19 00:14:03;;;;;;;6.15;3.42;;;10.00;99.90;;;;;;4996124;28;20072;-80
2022/04/19 00:16:28;;;;;;;16.10;2.88;;;10.00;99.90;;;;;;5012490;28;20863;-79
2022/04/19 00:18:54;;;;;;;7.25;3.72;;;9.90;99.90;;;;;;4995446;28;20057;-80
2022/04/19 00:21:20;;;;;;;8.15;3.13;;;9.90;99.90;;;;;;4995635;28;20030;-79
2022/04/19 00:23:51;;;;;;;9.43;2.85;;;9.80;99.90;;;;;;5012362;28;20037;-81
2022/04/19 00:26:17;;;;;;;7.53;2.90;;;9.80;99.90;;;;;;5013950;28;20061;-79
2022/04/19 00:28:42;;;;;;;10.18;3.28;;;9.80;99.90;;;;;;5013226;28;20033;-79
2022/04/19 00:31:08;;;;;;;7.50;3.15;;;9.70;99.90;;;;;;4995549;28;20043;-79
2022/04/19 00:33:33;;;;;;;10.15;3.63;;;9.70;99.90;;;;;;4995723;28;20018;-78
2022/04/19 00:35:59;;;;;;;8.40;3.30;;;9.70;99.90;;;;;;4995555;28;20034;-78
2022/04/19 00:38:25;;;;;;;6.45;3.20;;;9.60;99.90;;;;;;5012172;28;20026;-79
2022/04/19 00:40:50;;;;;;;3.78;2.25;;;9.60;99.90;;;;;;4995546;28;20030;-79
2022/04/19 00:43:18;;;;;;;4.40;2.53;;;9.50;99.90;;;;;;4995726;28;20031;-79
2022/04/19 00:45:43;;;;;;;7.55;3.80;;;9.50;99.90;;;;;;5012278;28;20026;-79
2022/04/19 00:48:10;;;;;;;6.05;2.55;;;9.50;99.90;;;;;;4994462;28;20093;-80
2022/04/19 00:50:36;;;;;;;8.55;3.55;;;9.40;99.90;;;;;;5012561;28;20018;-80
2022/04/19 00:53:03;;;;;;;6.78;2.78;;;9.30;99.90;;;;;;5012838;28;20044;-80
2022/04/19 00:55:31;;;;;;;6.60;3.33;;;9.40;99.90;;;;;;5013024;28;20038;-80
2022/04/19 00:57:57;;;;;;;5.63;2.97;;;9.30;99.90;;;;;;5012578;28;20037;-79
2022/04/19 01:00:23;;;;;;;7.85;2.72;;;9.30;99.90;;;;;;4994718;28;20030;-79
2022/04/19 01:02:48;;;;;;;6.63;2.90;;;9.30;99.90;;;;;;4995148;28;20023;-81
2022/04/19 01:05:15;;;;;;;11.35;3.63;;;9.30;99.90;;;;;;4994709;28;20031;-81
2022/04/19 01:07:42;;;;;;;6.55;2.25;;;9.30;99.90;;;;;;4994891;28;20117;-80
2022/04/19 01:10:08;;;;;;;6.47;2.88;;;9.30;99.90;;;;;;5012337;28;20034;-81
2022/04/19 01:15:18;;;;;;;7.13;3.22;;;9.20;99.90;;;;;;5013423;28;20049;-80
2022/04/19 01:17:53;;;;;;;6.68;3.03;;;9.10;99.90;;;;;;4993717;28;20026;-80
2022/04/19 01:20:19;;;;;;;8.40;3.28;;;9.10;99.90;;;;;;4995012;28;20037;-80
2022/04/19 01:22:49;;;;;;;11.05;3.67;;;9.10;99.90;;;;;;4994809;28;20022;-79
2022/04/19 01:25:17;;;;;;;8.32;2.80;;;9.00;99.90;;;;;;5012820;28;20101;-80
2022/04/19 01:27:43;;;;;;;8.10;3.67;;;9.00;99.90;;;;;;4994755;28;20026;-80
2022/04/19 01:30:09;;;;;;;8.30;3.15;;;9.00;99.90;;;;;;4997299;28;20036;-80
2022/04/19 01:32:36;;;;;;;4.90;2.42;;;8.90;99.90;;;;;;4998646;28;20041;-79
2022/04/19 01:35:08;;;;;;;5.70;2.88;;;8.90;99.90;;;;;;4998278;28;20483;-80
2022/04/19 01:37:34;;;;;;;5.03;2.72;;;8.90;99.90;;;;;;5015945;28;20037;-81
2022/04/19 01:40:17;;;;;;;6.97;2.28;;;8.90;99.90;;;;;;4998858;28;20037;-80
2022/04/19 01:42:54;;;;;;;3.78;2.85;;;8.90;99.90;;;;;;4998609;28;20027;-81
2022/04/19 01:45:25;;;;;;;8.13;2.67;;;8.80;99.90;;;;;;5016505;28;20546;-81
2022/04/19 01:47:52;;;;;;;6.30;2.95;;;8.80;99.90;;;;;;5015546;28;20064;-80
2022/04/19 01:50:21;;;;;;;7.68;3.13;;;8.80;99.90;;;;;;5015730;28;20022;-80
2022/04/19 01:52:48;;;;;;;6.47;2.78;;;8.80;99.90;;;;;;4997763;28;20049;-79
2022/04/19 01:55:15;;;;;;;9.30;2.70;;;8.70;99.90;;;;;;5015411;28;20547;-81
2022/04/19 01:57:46;;;;;;;5.40;2.75;;;8.70;99.90;;;;;;5015764;28;20498;-81
2022/04/19 02:00:13;;;;;;;6.35;2.90;;;8.70;99.90;;;;;;4998494;28;20132;-80
2022/04/19 02:02:39;;;;;;;7.20;3.30;;;8.70;99.90;;;;;;5015216;28;20030;-80
2022/04/19 02:05:06;;;;;;;4.13;2.33;;;8.60;99.90;;;;;;4998074;28;20053;-80
2022/04/19 02:07:36;;;;;;;7.28;3.13;;;8.60;99.90;;;;;;5015636;28;20042;-79
2022/04/19 02:10:04;;;;;;;9.40;2.97;;;8.60;99.90;;;;;;5015456;28;20022;-82
2022/04/19 02:12:31;;;;;;;5.20;2.78;;;8.60;99.90;;;;;;4997777;28;20030;-80
2022/04/19 02:14:57;;;;;;;6.93;2.83;;;8.60;99.90;;;;;;4997756;28;20038;-79
2022/04/19 02:17:23;;;;;;;4.78;2.33;;;8.60;99.90;;;;;;4997207;28;20038;-80
2022/04/19 02:20:06;;;;;;;5.78;2.38;;;8.60;99.90;;;;;;5015630;28;20022;-80
2022/04/19 02:22:33;;;;;;;5.47;2.35;;;8.50;99.90;;;;;;4997581;28;20481;-80
2022/04/19 02:24:59;;;;;;;6.00;3.35;;;8.50;99.90;;;;;;5015695;28;20073;-81
2022/04/19 02:27:26;;;;;;;4.70;2.00;;;8.40;99.90;;;;;;5015133;28;20085;-80
2022/04/19 02:29:52;;;;;;;5.70;2.45;;;8.40;99.90;;;;;;4997249;28;20153;-81
2022/04/19 02:32:18;;;;;;;6.05;2.53;;;8.40;99.90;;;;;;4997394;28;20160;-80
2022/04/19 02:34:44;;;;;;;4.95;2.22;;;8.40;99.90;;;;;;5015269;28;20381;-81
2022/04/19 02:37:10;;;;;;;3.72;2.15;;;8.40;99.90;;;;;;5014577;28;20049;-79
2022/04/19 02:39:38;;;;;;;3.65;2.10;;;8.30;99.90;;;;;;4996839;28;20041;-82
2022/04/19 02:42:04;;;;;;;5.70;2.60;;;8.30;99.90;;;;;;4997832;28;20030;-78
2022/04/19 02:44:31;;;;;;;6.45;2.63;;;8.30;99.90;;;;;;4997060;28;20033;-80
2022/04/19 02:46:56;;;;;;;4.60;2.35;;;8.30;99.90;;;;;;5014564;28;20054;-79
2022/04/19 02:49:22;;;;;;;6.28;3.00;;;8.20;99.90;;;;;;5014914;28;20041;-79
2022/04/19 02:51:47;;;;;;;4.88;2.67;;;8.20;99.90;;;;;;4996862;28;20032;-80
2022/04/19 02:54:13;;;;;;;7.40;3.22;;;8.20;99.90;;;;;;5014349;28;20034;-79
2022/04/19 02:56:39;;;;;;;8.20;3.35;;;8.10;99.90;;;;;;4997656;28;20060;-80
2022/04/19 02:59:05;;;;;;;4.90;2.00;;;8.10;99.90;;;;;;4997018;28;20023;-79
2022/04/19 03:01:31;;;;;;;6.55;2.83;;;8.10;99.90;;;;;;5015279;28;20033;-78
2022/04/19 03:03:57;;;;;;;5.72;2.70;;;8.10;99.90;;;;;;4997147;28;20033;-80
2022/04/19 03:06:23;;;;;;;5.78;2.35;;;8.10;99.90;;;;;;4997128;28;20022;-82
2022/04/19 03:08:49;;;;;;;6.35;2.35;;;8.10;99.90;;;;;;4996900;28;20477;-80
2022/04/19 03:11:15;;;;;;;4.88;2.65;;;8.10;99.90;;;;;;5014464;28;20065;-82
2022/04/19 03:13:41;;;;;;;4.53;2.38;;;8.00;99.90;;;;;;4996799;28;20044;-80
2022/04/19 03:16:10;;;;;;;6.85;3.20;;;8.00;99.90;;;;;;4997049;28;20034;-82
2022/04/19 03:18:36;;;;;;;2.72;1.75;;;7.90;99.90;;;;;;5013776;28;20019;-82
2022/04/19 03:21:02;;;;;;;7.53;2.95;;;7.90;99.90;;;;;;5015163;28;20029;-80
2022/04/19 03:28:56;;;;;;;5.38;2.67;;;7.80;99.90;;;;;;5014335;28;20045;-82
2022/04/19 03:31:24;;;;;;;6.75;3.30;;;7.80;99.90;;;;;;4996668;28;20026;-81
2022/04/19 03:33:53;;;;;;;6.85;2.80;;;7.70;99.90;;;;;;4996359;28;20026;-80
2022/04/19 03:36:20;;;;;;;4.60;2.70;;;7.70;99.90;;;;;;5013996;28;20030;-81
2022/04/19 03:38:46;;;;;;;10.55;2.70;;;7.70;99.90;;;;;;4996668;28;20019;-81
2022/04/19 03:41:13;;;;;;;4.07;2.38;;;7.60;99.90;;;;;;5013806;28;20029;-81
2022/04/19 03:43:41;;;;;;;4.70;2.40;;;7.60;99.90;;;;;;4996562;28;20470;-81
2022/04/19 03:46:08;;;;;;;7.30;3.20;;;7.60;99.90;;;;;;4996495;28;20022;-82
2022/04/19 03:48:34;;;;;;;5.20;2.35;;;7.50;99.90;;;;;;4995905;28;20048;-83
2022/04/19 03:51:00;;;;;;;8.38;2.65;;;7.50;99.90;;;;;;4996613;28;20023;-83
2022/04/19 03:53:25;;;;;;;7.15;3.33;;;7.50;99.90;;;;;;4995393;28;20041;-81
2022/04/19 03:55:51;;;;;;;7.38;3.13;;;7.40;99.90;;;;;;5012825;28;20445;-83
2022/04/19 03:58:16;;;;;;;6.90;2.33;;;7.40;99.90;;;;;;4996171;28;20049;-81
2022/04/19 04:00:42;;;;;;;10.52;2.83;;;7.30;99.90;;;;;;5013401;28;20027;-82
2022/04/19 04:03:08;;;;;;;7.50;3.03;;;7.30;99.90;;;;;;4995553;28;20034;-82
2022/04/19 04:05:34;;;;;;;5.80;2.92;;;7.30;99.90;;;;;;5013503;28;20022;-80
2022/04/19 04:07:59;;;;;;;8.38;3.05;;;7.20;99.90;;;;;;5013468;28;20025;-80
2022/04/19 04:10:25;;;;;;;5.82;2.63;;;7.20;99.90;;;;;;5013552;28;20040;-83
2022/04/19 04:12:51;;;;;;;5.63;2.38;;;7.20;99.90;;;;;;4995591;28;20515;-82
2022/04/19 04:15:17;;;;;;;7.10;3.38;;;7.10;99.90;;;;;;5012949;28;20077;-79
2022/04/19 04:17:43;;;;;;;5.93;2.55;;;7.10;99.90;;;;;;4995309;28;20052;-80
2022/04/19 04:20:10;;;;;;;4.00;2.30;;;7.10;99.90;;;;;;5013192;28;20068;-78
2022/04/19 04:22:35;;;;;;;5.10;2.55;;;7.00;99.90;;;;;;4995412;28;20021;-80
2022/04/19 04:25:02;;;;;;;5.78;2.63;;;7.00;99.90;;;;;;4995513;28;20022;-82
2022/04/19 04:27:28;;;;;;;9.35;2.92;;;6.90;99.90;;;;;;4995452;28;20471;-81
2022/04/19 04:30:01;;;;;;;3.90;2.75;;;6.90;99.90;;;;;;4995612;28;20048;-81
2022/04/19 04:32:27;;;;;;;6.63;2.53;;;6.90;99.90;;;;;;5013060;28;20048;-81
2022/04/19 04:34:52;;;;;;;8.73;3.00;;;6.80;99.90;;;;;;4995365;28;20061;-81
2022/04/19 04:37:18;;;;;;;6.20;3.42;;;6.80;99.90;;;;;;4994765;28;20038;-82
2022/04/19 04:39:44;;;;;;;4.68;2.45;;;6.80;99.90;;;;;;4995590;28;20024;-82
2022/04/19 04:42:15;;;;;;;4.53;2.80;;;6.70;99.90;;;;;;4995172;28;20015;-80
2022/04/19 04:44:41;;;;;;;10.68;2.50;;;6.70;99.90;;;;;;4995249;28;20030;-82
2022/04/19 04:49:52;;;;;;;6.47;2.88;;;6.70;99.90;;;;;;5012520;28;20090;-81
2022/04/19 04:52:18;;;;;;;3.33;2.05;;;6.70;99.90;;;;;;4995017;28;20030;-83
2022/04/19 04:54:44;;;;;;;2.80;2.33;;;6.70;99.90;;;;;;5012935;28;20029;-81
2022/04/19 04:57:10;;;;;;;6.43;2.70;;;6.70;99.90;;;;;;5011981;28;20042;-81
2022/04/19 04:59:37;;;;;;;6.68;3.35;;;6.70;99.90;;;;;;5012718;28;20022;-81
2022/04/19 05:02:04;;;;;;;4.53;2.47;;;6.70;99.90;;;;;;5013034;28;20112;-82
2022/04/19 05:04:32;;;;;;;4.00;2.78;;;6.80;99.90;;;;;;5015703;28;20578;-80
2022/04/19 05:06:58;;;;;;;6.75;2.75;;;6.80;99.90;;;;;;4999420;28;20026;-80
2022/04/19 05:09:24;;;;;;;3.55;2.20;;;6.80;99.90;;;;;;4999076;28;20032;-82
2022/04/19 05:11:52;;;;;;;3.58;2.40;;;6.80;99.90;;;;;;4998922;28;20025;-80
2022/04/19 05:14:18;;;;;;;8.25;3.10;;;6.80;99.90;;;;;;5016708;28;20048;-83
2022/04/19 05:16:44;;;;;;;5.45;2.45;;;6.80;99.90;;;;;;4999069;28;20034;-77
2022/04/19 05:19:09;;;;;;;5.53;2.60;;;6.90;99.90;;;;;;5017076;28;20053;-77
2022/04/19 05:21:40;;;;;;;5.57;3.10;;;6.90;99.90;;;;;;5016930;28;20022;-76
2022/04/19 05:24:07;;;;;;;8.50;2.28;;;7.00;99.90;;;;;;5016760;28;20028;-74
2022/04/19 05:26:33;;;;;;;6.82;2.70;;;7.00;99.90;;;;;;5017398;28;20026;-76
2022/04/19 05:28:59;;;;;;;7.93;2.75;;;7.00;99.90;;;;;;4998607;28;20053;-75
2022/04/19 05:31:25;;;;;;;5.50;2.42;;;7.10;99.90;;;;;;5016984;28;20038;-75
2022/04/19 05:33:51;;;;;;;4.32;2.55;;;7.10;99.90;;;;;;5027601;28;20081;-74
2022/04/19 05:36:17;;;;;;;2.65;1.88;;;7.20;99.90;;;;;;5015731;28;20119;-75
2022/04/19 05:38:43;;;;;;;4.90;2.75;;;7.30;99.90;;;;;;4999645;28;20134;-75
2022/04/19 05:41:10;;;;;;;5.50;2.63;;;7.30;99.90;;;;;;4998419;28;20026;-76
2022/04/19 05:43:36;;;;;;;4.80;1.95;;;7.40;99.90;;;;;;5017699;28;20113;-76
2022/04/19 05:46:02;;;;;;;3.97;1.80;;;7.50;99.90;;;;;;5016460;28;20073;-74
2022/04/19 05:48:28;;;;;;;5.13;2.10;;;7.50;99.90;;;;;;5014993;28;20507;-76
2022/04/19 05:50:53;;;;;;;7.95;2.63;;;7.50;99.90;;;;;;4998792;28;20037;-75
2022/04/19 05:53:19;;;;;;;11.55;2.00;;;7.60;99.90;;;;;;5016095;28;20045;-76
2022/04/19 05:55:45;;;;;;;6.65;2.60;;;7.70;99.90;;;;;;5015101;28;20093;-74
2022/04/19 05:58:11;;;;;;;3.53;2.22;;;7.80;99.90;;;;;;4998376;28;20021;-76
2022/04/19 06:00:36;;;;;;;5.32;2.35;;;7.80;99.90;;;;;;5015577;28;20058;-75
2022/04/19 06:05:47;;;;;;;6.43;1.90;;;7.90;99.90;;;;;;5016442;28;20053;-77
2022/04/19 06:08:14;;;;;;;3.38;1.88;;;8.00;99.90;;;;;;5015006;28;20026;-76
2022/04/19 06:10:40;;;;;;;4.43;2.35;;;8.10;99.90;;;;;;4998305;28;20053;-76
2022/04/19 06:13:08;;;;;;;3.28;1.95;;;8.20;99.90;;;;;;4997946;28;20029;-76
2022/04/19 06:15:35;;;;;;;3.90;1.67;;;8.20;99.90;;;;;;4995882;28;20046;-77
2022/04/19 06:18:01;;;;;;;9.40;2.05;;;8.30;99.90;;;;;;5016821;28;20030;-76
2022/04/19 06:20:26;;;;;;;5.47;1.92;;;8.40;99.90;;;;;;5015550;28;20034;-77
2022/04/19 06:22:52;;;;;;;4.00;1.92;;;8.40;99.90;;;;;;4997205;28;20141;-76
2022/04/19 06:25:22;;;;;;;3.63;1.65;;;8.50;99.90;;;;;;4997702;28;20045;-79
2022/04/19 06:27:48;;;;;;;3.90;2.10;;;8.60;99.90;;;;;;4996576;28;20033;-77
2022/04/19 06:30:14;;;;;;;8.85;1.70;;;8.60;99.90;;;;;;5015065;28;20026;-76
2022/04/19 06:32:41;;;;;;;2.88;1.67;;;8.70;99.90;;;;;;5015495;28;20026;-78
2022/04/19 06:35:08;;;;;;;2.53;1.80;;;8.70;99.90;;;;;;5014403;28;20042;-78
2022/04/19 06:37:35;;;;;;;3.25;1.67;;;8.80;99.90;;;;;;5015357;28;20042;-78
2022/04/19 06:40:03;;;;;;;3.08;1.67;;;8.90;99.90;;;;;;4998098;28;20030;-77
2022/04/19 06:42:29;;;;;;;4.75;1.80;;;9.00;99.90;;;;;;4998077;28;20030;-76
2022/04/19 06:44:55;;;;;;;3.13;1.90;;;9.10;99.90;;;;;;5014860;28;20098;-76
2022/04/19 06:47:24;;;;;;;2.35;1.30;;;9.20;99.90;;;;;;5014303;28;20026;-76
2022/04/19 06:49:50;;;;;;;3.80;1.42;;;9.20;99.90;;;;;;5014503;28;20041;-76
2022/04/19 06:52:15;;;;;;;3.08;1.58;;;9.30;99.90;;;;;;5014462;28;20104;-76
2022/04/19 06:54:44;;;;;;;3.38;1.92;;;9.30;99.90;;;;;;4996979;28;20041;-78
2022/04/19 06:57:10;;;;;;;5.95;1.92;;;9.40;99.90;;;;;;5014869;28;20041;-76
2022/04/19 06:59:35;;;;;;;3.53;1.30;;;9.50;99.90;;;;;;5014583;28;20033;-77
2022/04/19 07:02:01;;;;;;;2.72;1.90;;;9.60;99.90;;;;;;5014045;28;20044;-77
2022/04/19 07:04:27;;;;;;;2.50;1.35;;;9.70;99.90;;;;;;5013640;28;21440;-76
2022/04/19 07:06:52;;;;;;;3.63;1.75;;;9.80;99.90;;;;;;4996593;28;20029;-77
2022/04/19 07:09:18;;;;;;;2.13;1.17;;;9.90;99.90;;;;;;4997404;28;20030;-78
2022/04/19 07:11:44;;;;;;;4.97;1.77;;;10.00;99.90;;;;;;5014472;28;20071;-74
2022/04/19 07:14:09;;;;;;;2.30;1.42;;;10.10;99.90;;;;;;5013481;28;20033;-77
2022/04/19 07:16:35;;;;;;;4.55;1.73;;;10.20;99.90;;;;;;5014940;28;20044;-78
2022/04/19 07:19:01;;;;;;;14.25;1.52;;;10.30;99.90;;;;;;5014839;28;20032;-77
2022/04/19 07:26:56;;;;;;;1.90;1.20;;;10.70;99.90;;;;;;5012724;28;19912;-77
2022/04/19 07:29:21;;;;;;;3.13;1.58;;;10.80;99.90;;;;;;4997931;28;20029;-75
2022/04/19 07:31:49;;;;;;;2.90;1.30;;;11.00;99.90;;;;;;5013646;28;20041;-76
2022/04/19 07:34:15;;;;;;;1.40;0.85;;;10.90;99.90;;;;;;5013578;28;20022;-78
2022/04/19 07:36:41;;;;;;;5.38;1.30;;;11.00;99.90;;;;;;5014299;28;20046;-75
2022/04/19 07:39:11;;;;;;;6.53;1.40;;;11.20;99.90;;;;;;5013912;28;20032;-78
2022/04/19 07:41:38;;;;;;;2.55;1.17;;;11.30;99.90;;;;;;5014560;28;20030;-78
2022/04/19 07:44:05;;;;;;;11.02;1.20;;;11.50;99.90;;;;;;4996208;28;20042;-79
2022/04/19 07:46:33;;;;;;;5.53;1.05;;;11.50;99.90;;;;;;5013821;28;20126;-78
2022/04/19 07:48:59;;;;;;;1.88;1.10;;;11.70;99.90;;;;;;5014852;28;20039;-76
2022/04/19 07:51:25;;;;;;;1.85;1.05;;;11.70;99.90;;;;;;5013343;28;20038;-77
2022/04/19 07:53:52;;;;;;;0.98;0.60;;;11.90;99.90;;;;;;5013666;28;20166;-77
2022/04/19 07:56:18;;;;;;;2.95;1.33;;;12.00;99.90;;;;;;5011862;28;20034;-75
2022/04/19 07:58:46;;;;;;;3.22;1.08;;;12.10;99.90;;;;;;4995249;28;20025;-77
2022/04/19 08:01:12;;;;;;;1.67;0.77;;;12.20;99.90;;;;;;5012675;28;20022;-77
2022/04/19 08:03:38;;;;;;;1.80;0.90;;;12.20;99.90;;;;;;5013654;28;20036;-79
2022/04/19 08:06:04;;;;;;;1.40;0.50;;;12.40;99.90;;;;;;4995754;28;20395;-77
2022/04/19 08:08:29;;;;;;;1.50;0.60;;;12.50;99.90;;;;;;4996411;28;20042;-77
2022/04/19 08:10:55;;;;;;;0.57;0.50;;;12.70;99.90;;;;;;5013529;28;20100;-78
2022/04/19 08:13:21;;;;;;;0.82;0.57;;;12.80;99.90;;;;;;4996399;28;20041;-74
2022/04/19 08:15:46;;;;;;;1.95;0.40;;;12.80;99.90;;;;;;5012083;28;20038;-75
2022/04/19 08:18:14;;;;;;;0.57;0.32;;;12.90;99.90;;;;;;5014301;28;20030;-80
2022/04/19 08:20:43;;;;;;;0.68;0.50;;;13.10;99.90;;;;;;4995809;28;20041;-79
2022/04/19 08:23:10;;;;;;;1.15;0.50;;;13.10;99.90;;;;;;4995454;28;20050;-74
2022/04/19 08:25:37;;;;;;;2.00;0.80;;;13.30;99.90;;;;;;5011652;28;20026;-80
2022/04/19 08:28:05;;;;;;;0.77;0.50;;;13.40;99.90;;;;;;5023348;28;20073;-78
2022/04/19 08:30:31;;;;;;;2.42;0.80;;;13.60;99.90;;;;;;4995111;28;20049;-78
2022/04/19 08:32:57;;;;;;;2.63;0.90;;;13.80;99.90;;;;;;5012533;28;20096;-76
2022/04/19 08:35:23;;;;;;;1.25;0.45;;;13.90;99.90;;;;;;4994577;28;20022;-78
2022/04/19 08:37:49;;;;;;;1.38;0.52;;;14.10;99.90;;;;;;5012649;28;20026;-78
2022/04/19 08:40:16;;;;;;;1.35;0.70;;;14.30;99.90;;;;;;5013456;28;20086;-77
2022/04/19 08:42:42;;;;;;;1.45;0.57;;;14.60;99.90;;;;;;4995456;28;20038;-73
2022/04/19 08:45:10;;;;;;;1.48;0.70;;;14.70;99.90;;;;;;5012617;28;20030;-77
2022/04/19 08:47:41;;;;;;;0.80;0.57;;;14.70;99.80;;;;;;4993957;28;20045;-78
2022/04/19 08:50:13;;;;;;;1.42;0.57;;;14.80;99.90;;;;;;5011964;28;20042;-76
2022/04/19 08:52:41;;;;;;;3.13;0.40;;;14.90;98.30;;;;;;5013123;28;20022;-76
2022/04/19 08:57:53;;;;;;;0.80;0.50;;;15.10;98.80;;;;;;5013609;28;20045;-77
2022/04/19 09:00:23;;;;;;;0.63;0.60;;;15.30;99.90;;;;;;5012624;28;20025;-76
2022/04/19 09:03:06;;;;;;;0.65;0.38;;;15.40;99.90;;;;;;5014745;28;20026;-79
2022/04/19 09:05:31;;;;;;;2.60;0.85;;;15.60;99.90;;;;;;4994904;28;20042;-76
2022/04/19 09:07:58;;;;;;;1.40;0.90;;;15.80;99.90;;;;;;4995249;28;20065;-77
2022/04/19 09:10:32;;;;;;;2.35;1.08;;;16.00;99.90;;;;;;4995738;28;20029;-77
2022/04/19 09:13:09;;;;;;;2.97;1.10;;;16.20;98.40;;;;;;5013811;28;20172;-77
2022/04/19 09:15:43;;;;;;;3.05;0.98;;;16.20;97.40;;;;;;4993572;28;20797;-78
2022/04/19 09:18:20;;;;;;;1.42;0.90;;;16.10;97.30;;;;;;4996434;28;20022;-78
2022/04/19 09:20:50;;;;;;;1.33;0.73;;;15.90;99.00;;;;;;4994400;28;20026;-77
2022/04/19 09:23:16;;;;;;;5.28;1.65;;;15.90;98.80;;;;;;5012493;28;20101;-77
2022/04/19 09:25:43;;;;;;;0.85;0.80;;;16.10;98.40;;;;;;5012463;28;20029;-79
2022/04/19 09:28:21;;;;;;;1.80;1.23;;;16.20;99.00;;;;;;4995406;28;20029;-78
2022/04/19 09:30:51;;;;;;;2.97;1.50;;;16.40;97.80;;;;;;4993807;28;20034;-79
2022/04/19 09:33:18;;;;;;;2.55;1.10;;;16.60;97.40;;;;;;4993271;28;20034;-78
2022/04/19 09:35:47;;;;;;;2.25;1.50;;;16.70;97.00;;;;;;5011821;28;20118;-76
2022/04/19 09:38:13;;;;;;;2.22;1.33;;;16.80;97.10;;;;;;4994381;28;20023;-77
2022/04/19 09:40:47;;;;;;;2.90;1.52;;;17.00;97.60;;;;;;5012604;28;20040;-73
2022/04/19 09:43:22;;;;;;;3.50;1.53;;;17.20;96.10;;;;;;4996071;28;20046;-78
2022/04/19 09:45:54;;;;;;;2.75;1.38;;;17.40;98.20;;;;;;4993317;28;20701;-77
2022/04/19 09:48:32;;;;;;;3.15;1.25;;;17.50;96.80;;;;;;5011665;28;20046;-77
2022/04/19 09:51:02;;;;;;;3.00;1.17;;;17.40;96.90;;;;;;5013170;28;20090;-74
2022/04/19 09:53:33;;;;;;;2.50;1.40;;;17.40;96.00;;;;;;4999656;28;20030;-77
2022/04/19 09:55:59;;;;;;;2.53;1.23;;;17.50;95.90;;;;;;4998475;28;20125;-78
2022/04/19 09:58:26;;;;;;;3.30;1.48;;;17.50;94.70;;;;;;4998241;28;20014;-76
2022/04/19 10:00:52;;;;;;;8.95;1.70;;;17.40;95.60;;;;;;5016913;28;20048;-79
2022/04/19 10:08:41;;;;;;;6.45;1.98;;;17.40;94.70;;;;;;5015901;28;20056;-77
2022/04/19 10:11:09;;;;;;;5.38;1.90;;;17.50;94.90;;;;;;4998845;28;20044;-77
2022/04/19 10:13:38;;;;;;;4.03;1.67;;;17.70;95.10;;;;;;5013859;28;20041;-78
2022/04/19 10:16:14;;;;;;;4.05;1.55;;;17.90;95.00;;;;;;5013724;28;20045;-79
2022/04/19 10:18:51;;;;;;;3.50;1.48;;;18.00;94.90;;;;;;5016065;28;20037;-78
2022/04/19 10:21:20;;;;;;;2.65;1.40;;;18.20;95.30;;;;;;5012683;28;20258;-75
2022/04/19 10:23:46;;;;;;;9.23;1.88;;;18.50;92.80;;;;;;5014069;28;20018;-82
2022/04/19 10:26:21;;;;;;;3.97;1.85;;;18.50;92.80;;;;;;5013481;28;20053;-77
2022/04/19 10:28:56;;;;;;;5.93;1.65;;;18.50;92.50;;;;;;4994682;28;20545;-77
2022/04/19 10:31:27;;;;;;;2.55;1.33;;;18.40;92.70;;;;;;4997285;28;20496;-75
2022/04/19 10:33:53;;;;;;;7.40;2.17;;;18.50;93.40;;;;;;5014438;28;20030;-78
2022/04/19 10:36:42;;;;;;;4.13;1.75;;;18.70;93.20;;;;;;5014259;28;20079;-80
2022/04/19 10:39:11;;;;;;;2.75;1.42;;;18.90;93.50;;;;;;5014155;28;20041;-79
2022/04/19 10:41:56;;;;;;;2.13;1.30;;;19.20;94.40;;;;;;4997425;28;20030;-81
2022/04/19 10:44:29;;;;;;;4.30;1.98;;;19.40;93.50;;;;;;4997224;28;20871;-80
2022/04/19 10:47:11;;;;;;;10.35;2.45;;;19.70;92.80;;;;;;5014930;28;20487;-80
2022/04/19 10:50:24;;;;;;;2.97;1.63;;;19.70;91.80;;;;;;5015469;28;20120;-78
2022/04/19 10:52:51;;;;;;;5.30;2.28;;;19.70;91.70;;;;;;4941051;28;20099;-77
2022/04/19 10:55:17;;;;;;;3.95;1.65;;;19.70;92.20;;;;;;4955407;28;20083;-78
2022/04/19 11:00:34;;;;;;;4.45;1.83;;;19.70;90.20;;;;;;5014966;28;20041;-79
2022/04/19 11:03:00;;;;;;;2.50;1.48;;;19.60;91.40;;;;;;5015494;28;20031;-75
2022/04/19 11:05:50;;;;;;;5.03;1.73;;;19.70;91.10;;;;;;5014371;28;20655;-74
2022/04/19 11:08:24;;;;;;;4.43;1.77;;;19.80;89.50;;;;;;5014026;28;20116;-71
2022/04/19 11:10:56;;;;;;;3.35;1.73;;;19.70;90.80;;;;;;4996127;28;20022;-78
2022/04/19 11:13:35;;;;;;;9.45;2.20;;;19.50;90.00;;;;;;5016090;28;20062;-79
2022/04/19 11:16:08;;;;;;;4.13;1.95;;;19.40;90.80;;;;;;5014088;28;20128;-77
2022/04/19 11:18:54;;;;;;;5.57;1.83;;;19.60;91.70;;;;;;5014884;28;20029;-80
2022/04/19 11:21:46;;;;;;;7.55;1.90;;;19.80;92.00;;;;;;5015119;28;20030;-78
2022/04/19 11:24:12;;;;;;;3.80;2.38;;;20.00;90.50;;;;;;4996847;28;20034;-80
2022/04/19 11:26:41;;;;;;;5.40;1.85;;;20.00;90.30;;;;;;4997816;28;20082;-80
2022/04/19 11:29:10;;;;;;;2.90;1.48;;;20.10;91.10;;;;;;4997862;28;20038;-78
2022/04/19 11:31:55;;;;;;;5.28;1.92;;;20.20;91.40;;;;;;4996215;28;20117;-77
2022/04/19 11:34:21;;;;;;;3.33;1.77;;;20.40;89.60;;;;;;4994912;28;20027;-75
2022/04/19 11:36:47;;;;;;;3.47;1.90;;;20.30;90.40;;;;;;4996290;28;20044;-76
2022/04/19 11:46:44;;;;;;;3.83;2.05;;;20.40;89.20;;;;;;4996107;28;20034;-78
2022/04/19 11:47:57;;;;;;;6.37;2.10;;;20.80;88.50;;;;;;5013331;28;20061;-79
2022/04/19 11:50:31;;;;;;;10.40;2.28;;;20.60;89.70;;;;;;5013643;28;20033;-82
2022/04/19 11:52:56;;;;;;;;;;;20.70;90.20;;;;;;5013524;28;20037;-77
2022/04/19 11:55:27;;;;;;;6.97;3.38;;;20.80;87.30;;;;;;5013677;28;20292;-75
2022/04/19 11:58:06;;;;;;;6.82;2.00;;;21.10;90.20;;;;;;4996127;28;20042;-79
2022/04/19 12:00:34;;;;;;;3.78;1.60;;;21.20;89.40;;;;;;5012464;28;20022;-81
2022/04/19 12:03:04;;;;;;;5.32;1.90;;;21.50;90.20;;;;;;5012435;28;20129;-79
2022/04/19 12:05:38;;;;;;;6.30;2.35;;;21.80;89.80;;;;;;5012939;28;20121;-79
2022/04/19 12:08:06;;;;;;;6.75;2.05;;;22.10;87.20;;;;;;5013358;28;20036;-77
2022/04/19 12:10:32;;;;;;;4.15;1.95;;;22.20;88.00;;;;;;5012824;28;20046;-76
2022/04/19 12:12:58;;;;;;;4.00;2.25;;;22.30;88.80;;;;;;5011862;28;20713;-76
2022/04/19 12:15:41;;;;;;;2.58;1.40;;;22.40;86.40;;;;;;5010743;28;20111;-74
2022/04/19 12:18:07;;;;;;;3.42;1.77;;;22.20;86.40;;;;;;5012986;28;20030;-77
2022/04/19 12:20:45;;;;;;;6.05;2.17;;;22.20;87.90;;;;;;5012488;28;20026;-74
2022/04/19 12:23:18;;;;;;;10.30;2.45;;;22.10;84.70;;;;;;5011384;28;20030;-75
2022/04/19 12:25:59;;;;;;;3.83;2.15;;;22.00;85.60;;;;;;5012836;28;20057;-75
2022/04/19 12:28:47;;;;;;;7.70;1.92;;;21.90;85.50;;;;;;5013191;28;20414;-78
2022/04/19 12:31:41;;;;;;;4.70;1.80;;;22.20;84.70;;;;;;5013112;28;20030;-80
2022/04/19 12:34:09;;;;;;;14.37;2.13;;;22.40;85.30;;;;;;4995682;28;20052;-79
2022/04/19 12:36:48;;;;;;;3.67;2.10;;;22.70;86.30;;;;;;5012749;28;20038;-76
2022/04/19 12:39:22;;;;;;;12.35;2.35;;;22.90;84.80;;;;;;5012604;28;20026;-77
2022/04/19 12:41:49;;;;;;;1.98;1.63;;;22.90;84.60;;;;;;5012164;28;20026;-77
2022/04/19 12:44:18;;;;;;;3.78;2.28;;;23.00;86.50;;;;;;5012505;28;20026;-77
2022/04/19 12:46:45;;;;;;;4.53;1.77;;;23.30;84.70;;;;;;4994550;28;20037;-77
2022/04/19 12:49:24;;;;;;;4.95;2.20;;;23.50;85.10;;;;;;4994353;28;20042;-79
2022/04/19 12:52:09;;;;;;;6.93;2.28;;;23.70;81.70;;;;;;5028198;28;20033;-76
2022/04/19 12:54:37;;;;;;;2.90;1.67;;;23.80;83.90;;;;;;5012231;28;20387;-77
2022/04/19 12:57:14;;;;;;;5.90;2.38;;;23.80;84.20;;;;;;5009629;28;20081;-79
2022/04/19 12:59:45;;;;;;;4.88;2.10;;;23.90;83.30;;;;;;5009642;28;20095;-78
2022/04/19 13:02:14;;;;;;;4.20;1.92;;;23.90;82.50;;;;;;4991933;28;20017;-76
2022/04/19 13:04:41;;;;;;;9.30;1.77;;;23.90;79.20;;;;;;4997019;28;20064;-74
2022/04/19 13:12:37;;;;;;;3.03;1.23;;;23.50;82.10;;;;;;5012684;28;20450;-77
2022/04/19 13:15:04;;;;;;;3.83;1.60;;;23.50;79.10;;;;;;4994693;28;20034;-77
2022/04/19 13:17:35;;;;;;;8.60;1.63;;;23.60;77.60;;;;;;4994311;28;20041;-77
2022/04/19 13:20:02;;;;;;;5.20;1.35;;;23.50;78.40;;;;;;4995511;28;20122;-76
2022/04/19 13:22:29;;;;;;;6.57;1.25;;;23.20;78.30;;;;;;5012509;28;20439;-75
2022/04/19 13:24:55;;;;;;;6.78;1.30;;;23.10;77.70;;;;;;5012274;28;20030;-77
2022/04/19 13:27:21;;;;;;;1.48;1.10;;;23.30;78.80;;;;;;5016391;28;20044;-79
2022/04/19 13:29:47;;;;;;;3.13;1.50;;;23.50;80.00;;;;;;5015811;28;20524;-80
2022/04/19 13:32:13;;;;;;;2.50;1.15;;;23.80;78.20;;;;;;4997818;28;20120;-79
2022/04/19 13:34:39;;;;;;;2.47;0.70;;;23.90;78.70;;;;;;5016452;28;20054;-78
2022/04/19 13:37:06;;;;;;;1.92;1.08;;;23.80;76.80;;;;;;5016240;28;20049;-74
2022/04/19 13:39:33;;;;;;;2.15;0.93;;;23.90;75.70;;;;;;4998983;28;20021;-78
2022/04/19 13:41:59;;;;;;;3.05;1.17;;;23.90;77.40;;;;;;5015983;28;20034;-76